sensor_id;sensor_type;location;lat;lon;timestamp;temperature;humidity
74488;DHT22;62972;51.042;13.804;2022-08-19T00:00:40;23.80;57.20
74488;DHT22;62972;51.042;13.804;2022-08-19T00:01:43;23.80;57.20
74488;DHT22;62972;51.042;13.804;2022-08-19T00:02:53;23.80;57.10
74488;DHT22;62972;51.042;13.804;2022-08-19T00:04:01;23.80;57.40
74488;DHT22;62972;51.042;13.804;2022-08-19T00:05:04;23.80;57.20
74488;DHT22;62972;51.042;13.804;2022-08-19T00:06:06;23.80;57.40
74488;DHT22;62972;51.042;13.804;2022-08-19T00:07:07;23.80;57.30
74488;DHT22;62972;51.042;13.804;2022-08-19T00:08:09;23.80;57.30
74488;DHT22;62972;51.042;13.804;2022-08-19T00:09:14;23.80;57.40
74488;DHT22;62972;51.042;13.804;2022-08-19T00:10:17;23.80;57.50
74488;DHT22;62972;51.042;13.804;2022-08-19T00:11:19;23.70;57.60
74488;DHT22;62972;51.042;13.804;2022-08-19T00:12:27;23.70;57.70
74488;DHT22;62972;51.042;13.804;2022-08-19T00:13:28;23.70;57.70
74488;DHT22;62972;51.042;13.804;2022-08-19T00:14:30;23.70;57.70
74488;DHT22;62972;51.042;13.804;2022-08-19T00:15:33;23.70;57.60
74488;DHT22;62972;51.042;13.804;2022-08-19T00:16:36;23.70;57.80
74488;DHT22;62972;51.042;13.804;2022-08-19T00:17:43;23.70;57.70
74488;DHT22;62972;51.042;13.804;2022-08-19T00:18:45;23.70;57.90
74488;DHT22;62972;51.042;13.804;2022-08-19T00:19:47;23.70;57.80
74488;DHT22;62972;51.042;13.804;2022-08-19T00:20:48;23.70;58.00
74488;DHT22;62972;51.042;13.804;2022-08-19T00:21:51;23.70;57.80
74488;DHT22;62972;51.042;13.804;2022-08-19T00:22:53;23.60;57.90
74488;DHT22;62972;51.042;13.804;2022-08-19T00:23:57;23.60;58.10
74488;DHT22;62972;51.042;13.804;2022-08-19T00:24:59;23.60;58.00
74488;DHT22;62972;51.042;13.804;2022-08-19T00:26:04;23.60;58.00
74488;DHT22;62972;51.042;13.804;2022-08-19T00:27:06;23.60;58.00
74488;DHT22;62972;51.042;13.804;2022-08-19T00:28:27;23.70;58.20
74488;DHT22;62972;51.042;13.804;2022-08-19T00:29:28;23.70;58.00
74488;DHT22;62972;51.042;13.804;2022-08-19T00:30:30;23.70;58.00
74488;DHT22;62972;51.042;13.804;2022-08-19T00:31:32;23.60;58.20
74488;DHT22;62972;51.042;13.804;2022-08-19T00:32:34;23.60;58.30
74488;DHT22;62972;51.042;13.804;2022-08-19T00:33:36;23.60;58.40
74488;DHT22;62972;51.042;13.804;2022-08-19T00:34:38;23.60;58.50
74488;DHT22;62972;51.042;13.804;2022-08-19T00:35:40;23.60;58.40
74488;DHT22;62972;51.042;13.804;2022-08-19T00:36:42;23.60;58.50
74488;DHT22;62972;51.042;13.804;2022-08-19T00:37:44;23.60;58.60
74488;DHT22;62972;51.042;13.804;2022-08-19T00:38:46;23.60;58.40
74488;DHT22;62972;51.042;13.804;2022-08-19T00:39:49;23.60;58.50
74488;DHT22;62972;51.042;13.804;2022-08-19T00:40:52;23.50;58.80
74488;DHT22;62972;51.042;13.804;2022-08-19T00:41:54;23.50;58.60
74488;DHT22;62972;51.042;13.804;2022-08-19T00:42:56;23.50;58.70
74488;DHT22;62972;51.042;13.804;2022-08-19T00:45:10;23.50;59.00
74488;DHT22;62972;51.042;13.804;2022-08-19T00:46:12;23.50;59.00
74488;DHT22;62972;51.042;13.804;2022-08-19T00:47:14;23.50;58.90
74488;DHT22;62972;51.042;13.804;2022-08-19T00:48:17;23.50;59.00
74488;DHT22;62972;51.042;13.804;2022-08-19T00:49:27;23.50;58.90
74488;DHT22;62972;51.042;13.804;2022-08-19T00:50:31;23.50;58.80
74488;DHT22;62972;51.042;13.804;2022-08-19T00:51:33;23.40;59.10
74488;DHT22;62972;51.042;13.804;2022-08-19T00:52:39;23.50;59.50
74488;DHT22;62972;51.042;13.804;2022-08-19T00:53:44;23.50;58.90
74488;DHT22;62972;51.042;13.804;2022-08-19T00:54:46;23.40;59.20
74488;DHT22;62972;51.042;13.804;2022-08-19T00:55:55;23.40;59.20
74488;DHT22;62972;51.042;13.804;2022-08-19T00:56:58;23.40;59.00
74488;DHT22;62972;51.042;13.804;2022-08-19T00:58:08;23.40;59.00
74488;DHT22;62972;51.042;13.804;2022-08-19T00:59:13;23.40;59.00
74488;DHT22;62972;51.042;13.804;2022-08-19T01:00:36;23.40;59.50
74488;DHT22;62972;51.042;13.804;2022-08-19T01:01:41;23.50;59.20
74488;DHT22;62972;51.042;13.804;2022-08-19T01:02:43;23.40;59.10
74488;DHT22;62972;51.042;13.804;2022-08-19T01:03:45;23.40;59.20
74488;DHT22;62972;51.042;13.804;2022-08-19T01:05:03;23.40;59.40
74488;DHT22;62972;51.042;13.804;2022-08-19T01:06:06;23.40;59.80
74488;DHT22;62972;51.042;13.804;2022-08-19T01:07:08;23.40;59.60
74488;DHT22;62972;51.042;13.804;2022-08-19T01:08:17;23.40;59.50
74488;DHT22;62972;51.042;13.804;2022-08-19T01:09:19;23.40;59.50
74488;DHT22;62972;51.042;13.804;2022-08-19T01:10:25;23.40;59.60
74488;DHT22;62972;51.042;13.804;2022-08-19T01:11:28;23.40;59.70
74488;DHT22;62972;51.042;13.804;2022-08-19T01:12:31;23.30;59.90
74488;DHT22;62972;51.042;13.804;2022-08-19T01:13:33;23.30;60.00
74488;DHT22;62972;51.042;13.804;2022-08-19T01:14:52;23.30;60.00
74488;DHT22;62972;51.042;13.804;2022-08-19T01:15:57;23.30;60.10
74488;DHT22;62972;51.042;13.804;2022-08-19T01:17:00;23.30;60.10
74488;DHT22;62972;51.042;13.804;2022-08-19T01:18:07;23.30;60.20
74488;DHT22;62972;51.042;13.804;2022-08-19T01:19:26;23.20;60.50
74488;DHT22;62972;51.042;13.804;2022-08-19T01:20:29;23.20;60.50
74488;DHT22;62972;51.042;13.804;2022-08-19T01:21:41;23.20;60.30
74488;DHT22;62972;51.042;13.804;2022-08-19T01:22:57;23.30;60.70
74488;DHT22;62972;51.042;13.804;2022-08-19T01:23:59;23.20;60.80
74488;DHT22;62972;51.042;13.804;2022-08-19T01:25:01;23.20;60.80
74488;DHT22;62972;51.042;13.804;2022-08-19T01:26:18;23.20;60.80
74488;DHT22;62972;51.042;13.804;2022-08-19T01:27:20;23.20;61.40
74488;DHT22;62972;51.042;13.804;2022-08-19T01:28:25;23.20;60.80
74488;DHT22;62972;51.042;13.804;2022-08-19T01:29:41;23.20;60.90
74488;DHT22;62972;51.042;13.804;2022-08-19T01:30:45;23.20;61.10
74488;DHT22;62972;51.042;13.804;2022-08-19T01:31:51;23.20;60.90
74488;DHT22;62972;51.042;13.804;2022-08-19T01:32:56;23.20;61.50
74488;DHT22;62972;51.042;13.804;2022-08-19T01:33:58;23.10;61.10
74488;DHT22;62972;51.042;13.804;2022-08-19T01:35:04;23.10;61.10
74488;DHT22;62972;51.042;13.804;2022-08-19T01:36:13;23.10;61.20
74488;DHT22;62972;51.042;13.804;2022-08-19T01:37:16;23.10;61.20
74488;DHT22;62972;51.042;13.804;2022-08-19T01:38:27;23.10;61.00
74488;DHT22;62972;51.042;13.804;2022-08-19T01:39:33;23.10;61.20
74488;DHT22;62972;51.042;13.804;2022-08-19T01:40:38;23.10;61.40
74488;DHT22;62972;51.042;13.804;2022-08-19T01:41:41;23.10;61.10
74488;DHT22;62972;51.042;13.804;2022-08-19T01:42:42;23.10;62.10
74488;DHT22;62972;51.042;13.804;2022-08-19T01:43:45;23.10;61.10
74488;DHT22;62972;51.042;13.804;2022-08-19T01:45:07;23.10;61.10
74488;DHT22;62972;51.042;13.804;2022-08-19T01:46:09;23.10;61.20
74488;DHT22;62972;51.042;13.804;2022-08-19T01:47:12;23.20;61.50
74488;DHT22;62972;51.042;13.804;2022-08-19T01:48:15;23.10;61.10
74488;DHT22;62972;51.042;13.804;2022-08-19T01:49:19;23.10;61.10
74488;DHT22;62972;51.042;13.804;2022-08-19T01:50:21;23.10;61.20
74488;DHT22;62972;51.042;13.804;2022-08-19T01:51:24;23.10;61.30
74488;DHT22;62972;51.042;13.804;2022-08-19T01:52:26;23.10;61.50
74488;DHT22;62972;51.042;13.804;2022-08-19T01:53:29;23.10;61.50
74488;DHT22;62972;51.042;13.804;2022-08-19T01:54:34;23.10;61.40
74488;DHT22;62972;51.042;13.804;2022-08-19T01:55:39;23.00;61.60
74488;DHT22;62972;51.042;13.804;2022-08-19T01:56:41;23.00;61.70
74488;DHT22;62972;51.042;13.804;2022-08-19T01:57:47;23.00;62.20
74488;DHT22;62972;51.042;13.804;2022-08-19T01:58:55;23.00;61.70
74488;DHT22;62972;51.042;13.804;2022-08-19T01:59:58;23.00;61.70
74488;DHT22;62972;51.042;13.804;2022-08-19T02:01:01;23.00;61.70
74488;DHT22;62972;51.042;13.804;2022-08-19T02:02:05;23.00;61.80
74488;DHT22;62972;51.042;13.804;2022-08-19T02:03:10;23.10;61.80
74488;DHT22;62972;51.042;13.804;2022-08-19T02:04:12;23.10;61.80
74488;DHT22;62972;51.042;13.804;2022-08-19T02:05:15;23.00;62.10
74488;DHT22;62972;51.042;13.804;2022-08-19T02:06:17;23.00;62.00
74488;DHT22;62972;51.042;13.804;2022-08-19T02:07:27;23.00;62.20
74488;DHT22;62972;51.042;13.804;2022-08-19T02:08:32;23.00;62.10
74488;DHT22;62972;51.042;13.804;2022-08-19T02:09:35;23.00;61.70
74488;DHT22;62972;51.042;13.804;2022-08-19T02:10:43;23.00;61.90
74488;DHT22;62972;51.042;13.804;2022-08-19T02:11:45;23.00;62.50
74488;DHT22;62972;51.042;13.804;2022-08-19T02:12:47;23.10;62.50
74488;DHT22;62972;51.042;13.804;2022-08-19T02:13:50;23.10;62.20
74488;DHT22;62972;51.042;13.804;2022-08-19T02:14:52;23.10;62.20
74488;DHT22;62972;51.042;13.804;2022-08-19T02:15:54;23.10;62.20
74488;DHT22;62972;51.042;13.804;2022-08-19T02:16:56;23.10;62.40
74488;DHT22;62972;51.042;13.804;2022-08-19T02:17:57;23.10;63.40
74488;DHT22;62972;51.042;13.804;2022-08-19T02:18:59;23.10;62.70
74488;DHT22;62972;51.042;13.804;2022-08-19T02:20:05;23.00;63.00
74488;DHT22;62972;51.042;13.804;2022-08-19T02:21:07;23.00;62.20
74488;DHT22;62972;51.042;13.804;2022-08-19T02:22:09;23.10;63.40
74488;DHT22;62972;51.042;13.804;2022-08-19T02:23:13;23.00;62.40
74488;DHT22;62972;51.042;13.804;2022-08-19T02:24:16;23.00;62.50
74488;DHT22;62972;51.042;13.804;2022-08-19T02:25:18;23.00;62.70
74488;DHT22;62972;51.042;13.804;2022-08-19T02:26:20;23.00;62.60
74488;DHT22;62972;51.042;13.804;2022-08-19T02:27:22;23.00;62.80
74488;DHT22;62972;51.042;13.804;2022-08-19T02:28:24;23.00;62.70
74488;DHT22;62972;51.042;13.804;2022-08-19T02:29:26;22.90;62.80
74488;DHT22;62972;51.042;13.804;2022-08-19T02:30:28;22.90;62.70
74488;DHT22;62972;51.042;13.804;2022-08-19T02:31:29;22.90;62.60
74488;DHT22;62972;51.042;13.804;2022-08-19T02:32:31;22.90;62.70
74488;DHT22;62972;51.042;13.804;2022-08-19T02:33:35;22.90;62.60
74488;DHT22;62972;51.042;13.804;2022-08-19T02:34:36;22.90;62.70
74488;DHT22;62972;51.042;13.804;2022-08-19T02:35:42;23.00;62.60
74488;DHT22;62972;51.042;13.804;2022-08-19T02:36:44;23.00;62.80
74488;DHT22;62972;51.042;13.804;2022-08-19T02:37:52;23.00;62.80
74488;DHT22;62972;51.042;13.804;2022-08-19T02:39:14;23.00;62.60
74488;DHT22;62972;51.042;13.804;2022-08-19T02:40:16;23.00;62.60
74488;DHT22;62972;51.042;13.804;2022-08-19T02:41:23;23.10;62.50
74488;DHT22;62972;51.042;13.804;2022-08-19T02:42:27;23.10;62.70
74488;DHT22;62972;51.042;13.804;2022-08-19T02:43:31;23.10;62.70
74488;DHT22;62972;51.042;13.804;2022-08-19T02:44:35;23.00;62.70
74488;DHT22;62972;51.042;13.804;2022-08-19T02:45:38;23.00;62.60
74488;DHT22;62972;51.042;13.804;2022-08-19T02:46:42;23.00;62.50
74488;DHT22;62972;51.042;13.804;2022-08-19T02:47:46;23.00;62.70
74488;DHT22;62972;51.042;13.804;2022-08-19T02:48:53;23.00;62.30
74488;DHT22;62972;51.042;13.804;2022-08-19T02:49:55;23.00;62.40
74488;DHT22;62972;51.042;13.804;2022-08-19T02:50:57;23.00;62.60
74488;DHT22;62972;51.042;13.804;2022-08-19T02:51:58;23.00;62.90
74488;DHT22;62972;51.042;13.804;2022-08-19T02:53:00;23.00;62.70
74488;DHT22;62972;51.042;13.804;2022-08-19T02:54:03;23.00;63.10
74488;DHT22;62972;51.042;13.804;2022-08-19T02:55:06;23.00;62.70
74488;DHT22;62972;51.042;13.804;2022-08-19T02:56:08;23.00;63.00
74488;DHT22;62972;51.042;13.804;2022-08-19T02:57:09;23.00;62.80
74488;DHT22;62972;51.042;13.804;2022-08-19T02:58:12;23.00;62.70
74488;DHT22;62972;51.042;13.804;2022-08-19T02:59:14;22.90;62.50
74488;DHT22;62972;51.042;13.804;2022-08-19T03:00:16;23.00;62.80
74488;DHT22;62972;51.042;13.804;2022-08-19T03:01:25;23.00;63.00
74488;DHT22;62972;51.042;13.804;2022-08-19T03:02:27;23.10;62.70
74488;DHT22;62972;51.042;13.804;2022-08-19T03:03:29;23.10;63.10
74488;DHT22;62972;51.042;13.804;2022-08-19T03:04:31;23.10;63.50
74488;DHT22;62972;51.042;13.804;2022-08-19T03:05:32;23.10;62.60
74488;DHT22;62972;51.042;13.804;2022-08-19T03:06:55;23.10;62.80
74488;DHT22;62972;51.042;13.804;2022-08-19T03:08:03;23.10;62.90
74488;DHT22;62972;51.042;13.804;2022-08-19T03:09:05;23.10;63.30
74488;DHT22;62972;51.042;13.804;2022-08-19T03:10:08;23.10;63.50
74488;DHT22;62972;51.042;13.804;2022-08-19T03:11:24;23.00;63.00
74488;DHT22;62972;51.042;13.804;2022-08-19T03:12:26;23.00;63.30
74488;DHT22;62972;51.042;13.804;2022-08-19T03:13:28;23.00;63.30
74488;DHT22;62972;51.042;13.804;2022-08-19T03:14:32;23.00;62.90
74488;DHT22;62972;51.042;13.804;2022-08-19T03:15:34;23.00;62.90
74488;DHT22;62972;51.042;13.804;2022-08-19T03:16:46;23.00;63.00
74488;DHT22;62972;51.042;13.804;2022-08-19T03:17:48;23.00;63.70
74488;DHT22;62972;51.042;13.804;2022-08-19T03:18:50;23.00;62.90
74488;DHT22;62972;51.042;13.804;2022-08-19T03:19:52;23.00;63.20
74488;DHT22;62972;51.042;13.804;2022-08-19T03:20:55;23.00;63.20
74488;DHT22;62972;51.042;13.804;2022-08-19T03:21:58;23.00;63.40
74488;DHT22;62972;51.042;13.804;2022-08-19T03:23:00;23.00;63.40
74488;DHT22;62972;51.042;13.804;2022-08-19T03:24:05;23.00;63.30
74488;DHT22;62972;51.042;13.804;2022-08-19T03:25:08;23.00;63.50
74488;DHT22;62972;51.042;13.804;2022-08-19T03:26:10;23.00;62.90
74488;DHT22;62972;51.042;13.804;2022-08-19T03:27:17;23.00;63.10
74488;DHT22;62972;51.042;13.804;2022-08-19T03:28:19;23.00;63.60
74488;DHT22;62972;51.042;13.804;2022-08-19T03:29:22;23.00;63.30
74488;DHT22;62972;51.042;13.804;2022-08-19T03:30:31;23.00;63.50
74488;DHT22;62972;51.042;13.804;2022-08-19T03:31:34;23.00;63.40
74488;DHT22;62972;51.042;13.804;2022-08-19T03:32:51;22.90;63.40
74488;DHT22;62972;51.042;13.804;2022-08-19T03:33:57;22.90;63.40
74488;DHT22;62972;51.042;13.804;2022-08-19T03:34:59;22.90;63.50
74488;DHT22;62972;51.042;13.804;2022-08-19T03:37:08;22.90;63.70
74488;DHT22;62972;51.042;13.804;2022-08-19T03:38:11;22.90;63.10
74488;DHT22;62972;51.042;13.804;2022-08-19T03:39:13;22.90;63.40
74488;DHT22;62972;51.042;13.804;2022-08-19T03:40:15;22.90;63.30
74488;DHT22;62972;51.042;13.804;2022-08-19T03:41:22;22.90;63.50
74488;DHT22;62972;51.042;13.804;2022-08-19T03:42:34;22.90;63.30
74488;DHT22;62972;51.042;13.804;2022-08-19T03:43:57;23.00;63.20
74488;DHT22;62972;51.042;13.804;2022-08-19T03:44:59;22.90;63.00
74488;DHT22;62972;51.042;13.804;2022-08-19T03:46:02;23.00;63.30
74488;DHT22;62972;51.042;13.804;2022-08-19T03:47:05;23.00;63.30
74488;DHT22;62972;51.042;13.804;2022-08-19T03:48:07;22.90;63.10
74488;DHT22;62972;51.042;13.804;2022-08-19T03:49:09;22.90;63.30
74488;DHT22;62972;51.042;13.804;2022-08-19T03:50:15;22.90;63.70
74488;DHT22;62972;51.042;13.804;2022-08-19T03:51:19;23.00;63.40
74488;DHT22;62972;51.042;13.804;2022-08-19T03:52:31;22.90;63.20
74488;DHT22;62972;51.042;13.804;2022-08-19T03:53:34;23.00;63.40
74488;DHT22;62972;51.042;13.804;2022-08-19T03:54:36;23.00;63.30
74488;DHT22;62972;51.042;13.804;2022-08-19T03:55:40;22.90;63.40
74488;DHT22;62972;51.042;13.804;2022-08-19T03:56:44;22.90;63.30
74488;DHT22;62972;51.042;13.804;2022-08-19T03:57:46;22.90;63.60
74488;DHT22;62972;51.042;13.804;2022-08-19T03:58:50;22.90;63.20
74488;DHT22;62972;51.042;13.804;2022-08-19T03:59:51;22.90;63.40
74488;DHT22;62972;51.042;13.804;2022-08-19T04:00:54;22.90;63.40
74488;DHT22;62972;51.042;13.804;2022-08-19T04:01:57;22.90;63.10
74488;DHT22;62972;51.042;13.804;2022-08-19T04:02:59;23.00;63.10
74488;DHT22;62972;51.042;13.804;2022-08-19T04:04:03;23.00;62.80
74488;DHT22;62972;51.042;13.804;2022-08-19T04:05:05;23.00;63.00
74488;DHT22;62972;51.042;13.804;2022-08-19T04:06:14;22.90;63.00
74488;DHT22;62972;51.042;13.804;2022-08-19T04:07:17;23.00;62.80
74488;DHT22;62972;51.042;13.804;2022-08-19T04:08:20;22.90;62.90
74488;DHT22;62972;51.042;13.804;2022-08-19T04:09:22;22.90;62.70
74488;DHT22;62972;51.042;13.804;2022-08-19T04:10:24;22.90;63.00
74488;DHT22;62972;51.042;13.804;2022-08-19T04:11:29;22.90;63.30
74488;DHT22;62972;51.042;13.804;2022-08-19T04:12:44;23.00;63.20
74488;DHT22;62972;51.042;13.804;2022-08-19T04:13:50;23.00;63.40
74488;DHT22;62972;51.042;13.804;2022-08-19T04:14:53;23.00;63.10
74488;DHT22;62972;51.042;13.804;2022-08-19T04:15:54;23.00;63.20
74488;DHT22;62972;51.042;13.804;2022-08-19T04:16:57;23.00;63.10
74488;DHT22;62972;51.042;13.804;2022-08-19T04:17:59;23.00;63.10
74488;DHT22;62972;51.042;13.804;2022-08-19T04:19:02;23.00;62.90
74488;DHT22;62972;51.042;13.804;2022-08-19T04:20:05;22.90;62.50
74488;DHT22;62972;51.042;13.804;2022-08-19T04:21:08;23.00;62.20
74488;DHT22;62972;51.042;13.804;2022-08-19T04:22:16;23.10;62.40
74488;DHT22;62972;51.042;13.804;2022-08-19T04:23:18;23.20;62.50
74488;DHT22;62972;51.042;13.804;2022-08-19T04:24:21;23.30;62.40
74488;DHT22;62972;51.042;13.804;2022-08-19T04:25:23;23.30;62.80
74488;DHT22;62972;51.042;13.804;2022-08-19T04:26:28;23.30;62.00
74488;DHT22;62972;51.042;13.804;2022-08-19T04:27:33;23.40;61.70
74488;DHT22;62972;51.042;13.804;2022-08-19T04:28:35;23.40;61.80
74488;DHT22;62972;51.042;13.804;2022-08-19T04:29:38;23.40;62.00
74488;DHT22;62972;51.042;13.804;2022-08-19T04:30:47;23.50;62.00
74488;DHT22;62972;51.042;13.804;2022-08-19T04:31:50;23.50;62.10
74488;DHT22;62972;51.042;13.804;2022-08-19T04:32:52;23.50;61.50
74488;DHT22;62972;51.042;13.804;2022-08-19T04:33:55;23.50;61.50
74488;DHT22;62972;51.042;13.804;2022-08-19T04:34:58;23.60;61.80
74488;DHT22;62972;51.042;13.804;2022-08-19T04:36:26;23.60;61.30
74488;DHT22;62972;51.042;13.804;2022-08-19T04:37:28;23.60;62.00
74488;DHT22;62972;51.042;13.804;2022-08-19T04:38:36;23.50;61.20
74488;DHT22;62972;51.042;13.804;2022-08-19T04:39:38;23.60;61.60
74488;DHT22;62972;51.042;13.804;2022-08-19T04:41:03;23.60;61.20
74488;DHT22;62972;51.042;13.804;2022-08-19T04:42:23;23.60;61.70
74488;DHT22;62972;51.042;13.804;2022-08-19T04:43:40;23.50;61.60
74488;DHT22;62972;51.042;13.804;2022-08-19T04:44:42;23.50;61.90
74488;DHT22;62972;51.042;13.804;2022-08-19T04:45:47;23.50;62.10
74488;DHT22;62972;51.042;13.804;2022-08-19T04:46:49;23.40;61.80
74488;DHT22;62972;51.042;13.804;2022-08-19T04:47:55;23.40;62.10
74488;DHT22;62972;51.042;13.804;2022-08-19T04:49:20;23.50;62.20
74488;DHT22;62972;51.042;13.804;2022-08-19T04:50:26;23.50;62.30
74488;DHT22;62972;51.042;13.804;2022-08-19T04:51:28;23.50;62.30
74488;DHT22;62972;51.042;13.804;2022-08-19T04:52:32;23.50;62.20
74488;DHT22;62972;51.042;13.804;2022-08-19T04:53:36;23.50;62.20
74488;DHT22;62972;51.042;13.804;2022-08-19T04:54:38;23.50;62.10
74488;DHT22;62972;51.042;13.804;2022-08-19T04:55:41;23.50;61.90
74488;DHT22;62972;51.042;13.804;2022-08-19T04:56:43;23.40;62.00
74488;DHT22;62972;51.042;13.804;2022-08-19T04:57:45;23.40;61.90
74488;DHT22;62972;51.042;13.804;2022-08-19T04:58:47;23.40;62.10
74488;DHT22;62972;51.042;13.804;2022-08-19T04:59:54;23.40;62.20
74488;DHT22;62972;51.042;13.804;2022-08-19T05:00:56;23.40;62.00
74488;DHT22;62972;51.042;13.804;2022-08-19T05:01:58;23.40;62.30
74488;DHT22;62972;51.042;13.804;2022-08-19T05:02:59;23.30;61.90
74488;DHT22;62972;51.042;13.804;2022-08-19T05:04:05;23.40;62.20
74488;DHT22;62972;51.042;13.804;2022-08-19T05:05:08;23.40;61.80
74488;DHT22;62972;51.042;13.804;2022-08-19T05:06:12;23.50;62.00
74488;DHT22;62972;51.042;13.804;2022-08-19T05:07:15;23.50;62.00
74488;DHT22;62972;51.042;13.804;2022-08-19T05:08:19;23.40;62.00
74488;DHT22;62972;51.042;13.804;2022-08-19T05:09:32;23.40;61.90
74488;DHT22;62972;51.042;13.804;2022-08-19T05:10:53;23.40;62.50
74488;DHT22;62972;51.042;13.804;2022-08-19T05:11:55;23.40;62.00
74488;DHT22;62972;51.042;13.804;2022-08-19T05:12:57;23.40;62.00
74488;DHT22;62972;51.042;13.804;2022-08-19T05:13:59;23.50;62.00
74488;DHT22;62972;51.042;13.804;2022-08-19T05:15:02;23.50;62.00
74488;DHT22;62972;51.042;13.804;2022-08-19T05:16:05;23.50;61.80
74488;DHT22;62972;51.042;13.804;2022-08-19T05:17:07;23.50;61.90
74488;DHT22;62972;51.042;13.804;2022-08-19T05:18:27;23.40;61.90
74488;DHT22;62972;51.042;13.804;2022-08-19T05:19:48;23.40;61.80
74488;DHT22;62972;51.042;13.804;2022-08-19T05:21:14;23.40;62.00
74488;DHT22;62972;51.042;13.804;2022-08-19T05:22:36;23.30;62.20
74488;DHT22;62972;51.042;13.804;2022-08-19T05:23:39;23.30;62.00
74488;DHT22;62972;51.042;13.804;2022-08-19T05:24:41;23.30;62.30
74488;DHT22;62972;51.042;13.804;2022-08-19T05:26:03;23.30;62.20
74488;DHT22;62972;51.042;13.804;2022-08-19T05:27:05;23.30;62.60
74488;DHT22;62972;51.042;13.804;2022-08-19T05:28:07;23.30;62.40
74488;DHT22;62972;51.042;13.804;2022-08-19T05:29:09;23.30;62.20
74488;DHT22;62972;51.042;13.804;2022-08-19T05:30:12;23.30;62.20
74488;DHT22;62972;51.042;13.804;2022-08-19T05:31:14;23.30;62.20
74488;DHT22;62972;51.042;13.804;2022-08-19T05:32:16;23.30;61.80
74488;DHT22;62972;51.042;13.804;2022-08-19T05:33:18;23.30;61.50
74488;DHT22;62972;51.042;13.804;2022-08-19T05:34:22;23.40;61.60
74488;DHT22;62972;51.042;13.804;2022-08-19T05:35:25;23.40;61.90
74488;DHT22;62972;51.042;13.804;2022-08-19T05:36:28;23.30;61.70
74488;DHT22;62972;51.042;13.804;2022-08-19T05:37:29;23.30;61.80
74488;DHT22;62972;51.042;13.804;2022-08-19T05:38:31;23.30;61.90
74488;DHT22;62972;51.042;13.804;2022-08-19T05:39:36;23.20;61.90
74488;DHT22;62972;51.042;13.804;2022-08-19T05:40:39;23.10;62.00
74488;DHT22;62972;51.042;13.804;2022-08-19T05:41:49;23.10;62.20
74488;DHT22;62972;51.042;13.804;2022-08-19T05:42:51;23.10;63.70
74488;DHT22;62972;51.042;13.804;2022-08-19T05:44:02;23.00;62.50
74488;DHT22;62972;51.042;13.804;2022-08-19T05:45:07;22.90;62.50
74488;DHT22;62972;51.042;13.804;2022-08-19T05:46:19;22.90;62.90
74488;DHT22;62972;51.042;13.804;2022-08-19T05:47:28;22.90;62.90
74488;DHT22;62972;51.042;13.804;2022-08-19T05:48:30;22.90;62.90
74488;DHT22;62972;51.042;13.804;2022-08-19T05:49:33;22.90;62.70
74488;DHT22;62972;51.042;13.804;2022-08-19T05:50:35;22.90;63.40
74488;DHT22;62972;51.042;13.804;2022-08-19T05:51:37;22.90;63.00
74488;DHT22;62972;51.042;13.804;2022-08-19T05:52:39;22.80;62.80
74488;DHT22;62972;51.042;13.804;2022-08-19T05:53:54;22.80;63.00
74488;DHT22;62972;51.042;13.804;2022-08-19T05:54:56;22.80;63.00
74488;DHT22;62972;51.042;13.804;2022-08-19T05:55:58;22.80;63.40
74488;DHT22;62972;51.042;13.804;2022-08-19T05:57:04;22.80;62.90
74488;DHT22;62972;51.042;13.804;2022-08-19T05:58:06;22.80;63.00
74488;DHT22;62972;51.042;13.804;2022-08-19T05:59:10;22.80;62.90
74488;DHT22;62972;51.042;13.804;2022-08-19T06:00:13;22.80;62.90
74488;DHT22;62972;51.042;13.804;2022-08-19T06:01:17;22.80;63.10
74488;DHT22;62972;51.042;13.804;2022-08-19T06:02:19;22.80;63.10
74488;DHT22;62972;51.042;13.804;2022-08-19T06:03:21;22.70;63.30
74488;DHT22;62972;51.042;13.804;2022-08-19T06:04:23;22.80;63.70
74488;DHT22;62972;51.042;13.804;2022-08-19T06:05:25;22.70;63.60
74488;DHT22;62972;51.042;13.804;2022-08-19T06:06:27;22.70;63.80
74488;DHT22;62972;51.042;13.804;2022-08-19T06:07:29;22.70;63.70
74488;DHT22;62972;51.042;13.804;2022-08-19T06:08:31;22.80;63.80
74488;DHT22;62972;51.042;13.804;2022-08-19T06:09:35;22.70;64.10
74488;DHT22;62972;51.042;13.804;2022-08-19T06:10:38;22.70;64.30
74488;DHT22;62972;51.042;13.804;2022-08-19T06:11:43;22.70;64.20
74488;DHT22;62972;51.042;13.804;2022-08-19T06:12:45;22.70;64.80
74488;DHT22;62972;51.042;13.804;2022-08-19T06:13:50;22.70;64.50
74488;DHT22;62972;51.042;13.804;2022-08-19T06:15:05;22.60;65.30
74488;DHT22;62972;51.042;13.804;2022-08-19T06:16:07;22.60;65.70
74488;DHT22;62972;51.042;13.804;2022-08-19T06:17:09;22.60;65.20
74488;DHT22;62972;51.042;13.804;2022-08-19T06:18:12;22.60;65.20
74488;DHT22;62972;51.042;13.804;2022-08-19T06:19:16;22.50;65.30
74488;DHT22;62972;51.042;13.804;2022-08-19T06:20:18;22.50;65.40
74488;DHT22;62972;51.042;13.804;2022-08-19T06:21:42;22.50;65.10
74488;DHT22;62972;51.042;13.804;2022-08-19T06:22:46;22.50;65.00
74488;DHT22;62972;51.042;13.804;2022-08-19T06:23:48;22.50;65.10
74488;DHT22;62972;51.042;13.804;2022-08-19T06:24:50;22.50;65.10
74488;DHT22;62972;51.042;13.804;2022-08-19T06:25:54;22.50;65.20
74488;DHT22;62972;51.042;13.804;2022-08-19T06:26:56;22.50;65.10
74488;DHT22;62972;51.042;13.804;2022-08-19T06:28:02;22.40;65.40
74488;DHT22;62972;51.042;13.804;2022-08-19T06:29:22;22.40;64.70
74488;DHT22;62972;51.042;13.804;2022-08-19T06:30:25;22.40;64.60
74488;DHT22;62972;51.042;13.804;2022-08-19T06:31:28;22.50;64.60
74488;DHT22;62972;51.042;13.804;2022-08-19T06:32:31;22.50;64.70
74488;DHT22;62972;51.042;13.804;2022-08-19T06:33:32;22.50;64.10
74488;DHT22;62972;51.042;13.804;2022-08-19T06:34:35;22.40;64.40
74488;DHT22;62972;51.042;13.804;2022-08-19T06:35:40;22.40;64.30
74488;DHT22;62972;51.042;13.804;2022-08-19T06:36:46;22.40;64.40
74488;DHT22;62972;51.042;13.804;2022-08-19T06:37:48;22.40;64.30
74488;DHT22;62972;51.042;13.804;2022-08-19T06:38:50;22.40;64.30
74488;DHT22;62972;51.042;13.804;2022-08-19T06:39:51;22.50;65.10
74488;DHT22;62972;51.042;13.804;2022-08-19T06:41:03;22.50;64.50
74488;DHT22;62972;51.042;13.804;2022-08-19T06:42:09;22.50;65.00
74488;DHT22;62972;51.042;13.804;2022-08-19T06:43:13;22.50;64.80
74488;DHT22;62972;51.042;13.804;2022-08-19T06:44:20;22.50;64.70
74488;DHT22;62972;51.042;13.804;2022-08-19T06:45:26;22.50;64.60